sensor_id;sensor_type;location;lat;lon;timestamp;temperature;humidity
25753;DHT22;13600;50.816;4.416;2023-12-20T00:00:36;7.60;99.90
25753;DHT22;13600;50.816;4.416;2023-12-20T00:03:03;7.50;99.90
25753;DHT22;13600;50.816;4.416;2023-12-20T00:05:29;7.50;99.90
25753;DHT22;13600;50.816;4.416;2023-12-20T00:07:57;7.50;99.90
25753;DHT22;13600;50.816;4.416;2023-12-20T00:10:23;7.50;99.90
25753;DHT22;13600;50.816;4.416;2023-12-20T00:12:50;7.50;99.90
25753;DHT22;13600;50.816;4.416;2023-12-20T00:15:15;7.50;99.90
25753;DHT22;13600;50.816;4.416;2023-12-20T00:17:43;7.60;99.90
25753;DHT22;13600;50.816;4.416;2023-12-20T00:20:09;7.60;99.90
25753;DHT22;13600;50.816;4.416;2023-12-20T00:22:35;7.70;99.90
25753;DHT22;13600;50.816;4.416;2023-12-20T00:25:01;7.70;99.90
25753;DHT22;13600;50.816;4.416;2023-12-20T00:27:27;7.70;99.90
25753;DHT22;13600;50.816;4.416;2023-12-20T00:29:53;7.60;99.90
25753;DHT22;13600;50.816;4.416;2023-12-20T00:32:19;7.40;99.90
25753;DHT22;13600;50.816;4.416;2023-12-20T00:34:45;7.50;99.90
25753;DHT22;13600;50.816;4.416;2023-12-20T00:37:10;7.40;99.90
25753;DHT22;13600;50.816;4.416;2023-12-20T00:39:36;7.30;99.90
25753;DHT22;13600;50.816;4.416;2023-12-20T00:42:02;7.20;99.90
25753;DHT22;13600;50.816;4.416;2023-12-20T00:44:27;7.20;99.90
25753;DHT22;13600;50.816;4.416;2023-12-20T00:46:53;7.20;99.90
25753;DHT22;13600;50.816;4.416;2023-12-20T00:49:19;7.20;99.90
25753;DHT22;13600;50.816;4.416;2023-12-20T00:51:45;7.10;99.90
25753;DHT22;13600;50.816;4.416;2023-12-20T00:54:10;7.00;99.90
25753;DHT22;13600;50.816;4.416;2023-12-20T00:56:36;7.10;99.90
25753;DHT22;13600;50.816;4.416;2023-12-20T00:59:01;7.10;99.90
25753;DHT22;13600;50.816;4.416;2023-12-20T01:01:27;7.20;99.90
25753;DHT22;13600;50.816;4.416;2023-12-20T01:03:53;7.00;99.90
25753;DHT22;13600;50.816;4.416;2023-12-20T01:06:18;7.10;99.90
25753;DHT22;13600;50.816;4.416;2023-12-20T01:08:44;7.10;99.90
25753;DHT22;13600;50.816;4.416;2023-12-20T01:11:10;7.10;99.90
25753;DHT22;13600;50.816;4.416;2023-12-20T01:13:36;7.20;99.90
25753;DHT22;13600;50.816;4.416;2023-12-20T01:16:02;7.10;99.90
25753;DHT22;13600;50.816;4.416;2023-12-20T01:18:28;7.20;99.90
25753;DHT22;13600;50.816;4.416;2023-12-20T01:20:53;7.10;99.90
25753;DHT22;13600;50.816;4.416;2023-12-20T01:23:19;7.00;99.90
25753;DHT22;13600;50.816;4.416;2023-12-20T01:25:45;6.90;99.90
25753;DHT22;13600;50.816;4.416;2023-12-20T01:28:10;6.90;99.90
25753;DHT22;13600;50.816;4.416;2023-12-20T01:30:36;6.90;99.90
25753;DHT22;13600;50.816;4.416;2023-12-20T01:33:02;6.80;99.90
25753;DHT22;13600;50.816;4.416;2023-12-20T01:35:27;6.90;99.90
25753;DHT22;13600;50.816;4.416;2023-12-20T01:37:53;6.80;99.90
25753;DHT22;13600;50.816;4.416;2023-12-20T01:40:22;6.80;99.90
25753;DHT22;13600;50.816;4.416;2023-12-20T01:42:58;6.80;99.90
25753;DHT22;13600;50.816;4.416;2023-12-20T01:45:23;6.80;99.90
25753;DHT22;13600;50.816;4.416;2023-12-20T01:47:50;6.90;99.90
25753;DHT22;13600;50.816;4.416;2023-12-20T01:50:15;6.90;99.90
25753;DHT22;13600;50.816;4.416;2023-12-20T01:52:42;6.90;99.90
25753;DHT22;13600;50.816;4.416;2023-12-20T01:55:08;6.90;99.90
25753;DHT22;13600;50.816;4.416;2023-12-20T01:57:39;6.80;99.90
25753;DHT22;13600;50.816;4.416;2023-12-20T02:00:06;6.80;99.90
25753;DHT22;13600;50.816;4.416;2023-12-20T02:02:36;6.80;99.90
25753;DHT22;13600;50.816;4.416;2023-12-20T02:05:03;6.80;99.90
25753;DHT22;13600;50.816;4.416;2023-12-20T02:07:31;6.80;99.90
25753;DHT22;13600;50.816;4.416;2023-12-20T02:09:56;6.70;99.90
25753;DHT22;13600;50.816;4.416;2023-12-20T02:12:22;6.90;99.90
25753;DHT22;13600;50.816;4.416;2023-12-20T02:14:48;6.90;99.90
25753;DHT22;13600;50.816;4.416;2023-12-20T02:17:15;6.90;99.90
25753;DHT22;13600;50.816;4.416;2023-12-20T02:19:41;6.80;99.90
25753;DHT22;13600;50.816;4.416;2023-12-20T02:22:12;6.70;99.90
25753;DHT22;13600;50.816;4.416;2023-12-20T02:24:38;6.80;99.90
25753;DHT22;13600;50.816;4.416;2023-12-20T02:27:06;6.70;99.90
25753;DHT22;13600;50.816;4.416;2023-12-20T02:29:36;6.70;99.90
25753;DHT22;13600;50.816;4.416;2023-12-20T02:32:02;6.70;99.90
25753;DHT22;13600;50.816;4.416;2023-12-20T02:34:28;6.70;99.90
25753;DHT22;13600;50.816;4.416;2023-12-20T02:36:54;6.70;99.90
25753;DHT22;13600;50.816;4.416;2023-12-20T02:39:20;6.70;99.90
25753;DHT22;13600;50.816;4.416;2023-12-20T02:41:46;6.70;99.90
25753;DHT22;13600;50.816;4.416;2023-12-20T02:44:12;6.70;99.90
25753;DHT22;13600;50.816;4.416;2023-12-20T02:46:37;6.70;99.90
25753;DHT22;13600;50.816;4.416;2023-12-20T02:49:03;6.70;99.90
25753;DHT22;13600;50.816;4.416;2023-12-20T02:51:29;6.60;99.90
25753;DHT22;13600;50.816;4.416;2023-12-20T02:53:55;6.60;99.90
25753;DHT22;13600;50.816;4.416;2023-12-20T02:56:20;6.70;99.90
25753;DHT22;13600;50.816;4.416;2023-12-20T02:58:46;6.80;99.90
25753;DHT22;13600;50.816;4.416;2023-12-20T03:01:11;6.70;99.90
25753;DHT22;13600;50.816;4.416;2023-12-20T03:03:37;6.70;99.90
25753;DHT22;13600;50.816;4.416;2023-12-20T03:06:04;6.60;99.90
25753;DHT22;13600;50.816;4.416;2023-12-20T03:08:30;6.60;99.90
25753;DHT22;13600;50.816;4.416;2023-12-20T03:10:59;6.60;99.90
25753;DHT22;13600;50.816;4.416;2023-12-20T03:13:25;6.60;99.90
25753;DHT22;13600;50.816;4.416;2023-12-20T03:15:50;6.70;99.90
25753;DHT22;13600;50.816;4.416;2023-12-20T03:18:16;6.80;99.90
25753;DHT22;13600;50.816;4.416;2023-12-20T03:20:42;6.90;99.90
25753;DHT22;13600;50.816;4.416;2023-12-20T03:23:08;7.00;99.90
25753;DHT22;13600;50.816;4.416;2023-12-20T03:25:34;7.00;99.90
25753;DHT22;13600;50.816;4.416;2023-12-20T03:28:01;6.90;99.90
25753;DHT22;13600;50.816;4.416;2023-12-20T03:30:27;6.80;99.90
25753;DHT22;13600;50.816;4.416;2023-12-20T03:32:52;6.80;99.90
25753;DHT22;13600;50.816;4.416;2023-12-20T03:35:18;6.80;99.90
25753;DHT22;13600;50.816;4.416;2023-12-20T03:37:43;6.80;99.90
25753;DHT22;13600;50.816;4.416;2023-12-20T03:40:10;6.80;99.90
25753;DHT22;13600;50.816;4.416;2023-12-20T03:42:35;6.90;99.90
25753;DHT22;13600;50.816;4.416;2023-12-20T03:45:01;6.90;99.90
25753;DHT22;13600;50.816;4.416;2023-12-20T03:47:26;6.90;99.90
25753;DHT22;13600;50.816;4.416;2023-12-20T03:49:53;6.80;99.90
25753;DHT22;13600;50.816;4.416;2023-12-20T03:52:18;7.00;99.90
25753;DHT22;13600;50.816;4.416;2023-12-20T03:54:44;6.90;99.90
25753;DHT22;13600;50.816;4.416;2023-12-20T03:57:10;6.80;99.90
25753;DHT22;13600;50.816;4.416;2023-12-20T03:59:37;6.80;99.90
25753;DHT22;13600;50.816;4.416;2023-12-20T04:02:03;6.80;99.90
25753;DHT22;13600;50.816;4.416;2023-12-20T04:04:29;6.80;99.90
25753;DHT22;13600;50.816;4.416;2023-12-20T04:06:55;6.70;99.90
25753;DHT22;13600;50.816;4.416;2023-12-20T04:09:21;6.80;99.90
25753;DHT22;13600;50.816;4.416;2023-12-20T04:11:46;6.80;99.90
25753;DHT22;13600;50.816;4.416;2023-12-20T04:14:12;6.90;99.90
25753;DHT22;13600;50.816;4.416;2023-12-20T04:16:38;7.00;99.90
25753;DHT22;13600;50.816;4.416;2023-12-20T04:19:04;7.00;99.90
25753;DHT22;13600;50.816;4.416;2023-12-20T04:21:30;7.00;99.90
25753;DHT22;13600;50.816;4.416;2023-12-20T04:23:56;7.00;99.90
25753;DHT22;13600;50.816;4.416;2023-12-20T04:26:22;7.00;99.90
25753;DHT22;13600;50.816;4.416;2023-12-20T04:28:48;6.80;99.90
25753;DHT22;13600;50.816;4.416;2023-12-20T04:31:13;6.80;99.90
25753;DHT22;13600;50.816;4.416;2023-12-20T04:33:39;6.80;99.90
25753;DHT22;13600;50.816;4.416;2023-12-20T04:36:05;6.80;99.90
25753;DHT22;13600;50.816;4.416;2023-12-20T04:38:30;6.70;99.90
25753;DHT22;13600;50.816;4.416;2023-12-20T04:40:57;6.70;99.90
25753;DHT22;13600;50.816;4.416;2023-12-20T04:43:23;6.70;99.90
25753;DHT22;13600;50.816;4.416;2023-12-20T04:45:49;6.70;99.90
25753;DHT22;13600;50.816;4.416;2023-12-20T04:48:14;6.70;99.90
25753;DHT22;13600;50.816;4.416;2023-12-20T04:50:40;6.80;99.90
25753;DHT22;13600;50.816;4.416;2023-12-20T04:53:06;6.80;99.90
25753;DHT22;13600;50.816;4.416;2023-12-20T04:55:31;6.90;99.90
25753;DHT22;13600;50.816;4.416;2023-12-20T04:57:57;6.90;99.90
25753;DHT22;13600;50.816;4.416;2023-12-20T05:00:23;7.00;99.90
25753;DHT22;13600;50.816;4.416;2023-12-20T05:02:48;7.00;99.90
25753;DHT22;13600;50.816;4.416;2023-12-20T05:05:14;7.00;99.90
25753;DHT22;13600;50.816;4.416;2023-12-20T05:07:43;7.10;99.90
25753;DHT22;13600;50.816;4.416;2023-12-20T05:10:09;7.00;99.90
25753;DHT22;13600;50.816;4.416;2023-12-20T05:12:35;7.00;99.90
25753;DHT22;13600;50.816;4.416;2023-12-20T05:15:01;6.90;99.90
25753;DHT22;13600;50.816;4.416;2023-12-20T05:17:26;7.00;99.90
25753;DHT22;13600;50.816;4.416;2023-12-20T05:19:52;7.00;99.90
25753;DHT22;13600;50.816;4.416;2023-12-20T05:22:19;7.00;99.90
25753;DHT22;13600;50.816;4.416;2023-12-20T05:24:45;7.00;99.90
25753;DHT22;13600;50.816;4.416;2023-12-20T05:27:11;7.00;99.90
25753;DHT22;13600;50.816;4.416;2023-12-20T05:29:37;7.00;99.90
25753;DHT22;13600;50.816;4.416;2023-12-20T05:32:03;7.10;99.90
25753;DHT22;13600;50.816;4.416;2023-12-20T05:34:30;7.10;99.90
25753;DHT22;13600;50.816;4.416;2023-12-20T05:36:57;6.90;99.90
25753;DHT22;13600;50.816;4.416;2023-12-20T05:39:23;7.00;99.90
25753;DHT22;13600;50.816;4.416;2023-12-20T05:41:48;6.90;99.90
25753;DHT22;13600;50.816;4.416;2023-12-20T05:44:14;6.70;99.90
25753;DHT22;13600;50.816;4.416;2023-12-20T05:46:40;6.60;99.90
25753;DHT22;13600;50.816;4.416;2023-12-20T05:49:06;6.70;99.90
25753;DHT22;13600;50.816;4.416;2023-12-20T05:51:32;6.60;99.90
25753;DHT22;13600;50.816;4.416;2023-12-20T05:53:58;6.50;99.90
25753;DHT22;13600;50.816;4.416;2023-12-20T05:56:24;6.50;99.90
25753;DHT22;13600;50.816;4.416;2023-12-20T05:58:49;6.40;99.90
25753;DHT22;13600;50.816;4.416;2023-12-20T06:01:15;6.30;99.90
25753;DHT22;13600;50.816;4.416;2023-12-20T06:03:44;6.30;99.90
25753;DHT22;13600;50.816;4.416;2023-12-20T06:06:11;6.40;99.90
25753;DHT22;13600;50.816;4.416;2023-12-20T06:08:38;6.40;99.90
25753;DHT22;13600;50.816;4.416;2023-12-20T06:11:04;6.30;99.90
25753;DHT22;13600;50.816;4.416;2023-12-20T06:13:31;6.30;99.90
25753;DHT22;13600;50.816;4.416;2023-12-20T06:15:57;6.40;99.90
25753;DHT22;13600;50.816;4.416;2023-12-20T06:18:23;6.30;99.90
25753;DHT22;13600;50.816;4.416;2023-12-20T06:20:50;6.40;99.90
25753;DHT22;13600;50.816;4.416;2023-12-20T06:23:15;6.40;99.90
25753;DHT22;13600;50.816;4.416;2023-12-20T06:25:41;6.60;99.90
25753;DHT22;13600;50.816;4.416;2023-12-20T06:28:07;6.60;99.90
25753;DHT22;13600;50.816;4.416;2023-12-20T06:30:33;6.70;99.90
25753;DHT22;13600;50.816;4.416;2023-12-20T06:32:59;6.60;99.90
25753;DHT22;13600;50.816;4.416;2023-12-20T06:35:25;6.60;99.90
25753;DHT22;13600;50.816;4.416;2023-12-20T06:37:50;6.60;99.90
25753;DHT22;13600;50.816;4.416;2023-12-20T06:40:18;6.80;99.90
25753;DHT22;13600;50.816;4.416;2023-12-20T06:42:44;6.70;99.90
25753;DHT22;13600;50.816;4.416;2023-12-20T06:45:10;6.80;99.90
25753;DHT22;13600;50.816;4.416;2023-12-20T06:47:37;6.80;99.90
25753;DHT22;13600;50.816;4.416;2023-12-20T06:50:02;6.70;99.90
25753;DHT22;13600;50.816;4.416;2023-12-20T06:52:28;6.70;99.90
25753;DHT22;13600;50.816;4.416;2023-12-20T06:54:54;6.70;99.90
25753;DHT22;13600;50.816;4.416;2023-12-20T06:57:19;6.70;99.90
25753;DHT22;13600;50.816;4.416;2023-12-20T06:59:45;6.60;99.90
25753;DHT22;13600;50.816;4.416;2023-12-20T07:02:11;6.60;99.90
25753;DHT22;13600;50.816;4.416;2023-12-20T07:04:40;6.50;99.90
25753;DHT22;13600;50.816;4.416;2023-12-20T07:07:07;6.40;99.90
25753;DHT22;13600;50.816;4.416;2023-12-20T07:09:33;6.40;99.90
25753;DHT22;13600;50.816;4.416;2023-12-20T07:11:59;6.40;99.90
25753;DHT22;13600;50.816;4.416;2023-12-20T07:14:24;6.40;99.90
25753;DHT22;13600;50.816;4.416;2023-12-20T07:16:51;6.40;99.90
25753;DHT22;13600;50.816;4.416;2023-12-20T07:19:17;6.30;99.90
25753;DHT22;13600;50.816;4.416;2023-12-20T07:21:43;6.20;99.90
25753;DHT22;13600;50.816;4.416;2023-12-20T07:24:09;6.20;99.90
25753;DHT22;13600;50.816;4.416;2023-12-20T07:26:35;6.20;99.90
25753;DHT22;13600;50.816;4.416;2023-12-20T07:29:00;6.20;99.90
25753;DHT22;13600;50.816;4.416;2023-12-20T07:31:26;6.20;99.90
25753;DHT22;13600;50.816;4.416;2023-12-20T07:33:53;6.30;99.90
25753;DHT22;13600;50.816;4.416;2023-12-20T07:36:20;6.20;99.90
25753;DHT22;13600;50.816;4.416;2023-12-20T07:38:46;6.20;99.90
25753;DHT22;13600;50.816;4.416;2023-12-20T07:41:13;6.30;99.90
25753;DHT22;13600;50.816;4.416;2023-12-20T07:43:41;6.30;99.90
25753;DHT22;13600;50.816;4.416;2023-12-20T07:46:07;6.10;99.90
25753;DHT22;13600;50.816;4.416;2023-12-20T07:48:34;6.10;99.90
25753;DHT22;13600;50.816;4.416;2023-12-20T07:51:01;6.10;99.90
25753;DHT22;13600;50.816;4.416;2023-12-20T07:53:27;6.10;99.90
25753;DHT22;13600;50.816;4.416;2023-12-20T07:55:53;6.20;99.90
25753;DHT22;13600;50.816;4.416;2023-12-20T07:58:19;6.20;99.90
25753;DHT22;13600;50.816;4.416;2023-12-20T08:00:44;6.00;99.90
25753;DHT22;13600;50.816;4.416;2023-12-20T08:03:10;6.00;99.90
25753;DHT22;13600;50.816;4.416;2023-12-20T08:05:36;6.10;99.90
25753;DHT22;13600;50.816;4.416;2023-12-20T08:08:02;6.20;99.90
25753;DHT22;13600;50.816;4.416;2023-12-20T08:10:28;6.20;99.90
25753;DHT22;13600;50.816;4.416;2023-12-20T08:12:55;6.10;99.90
25753;DHT22;13600;50.816;4.416;2023-12-20T08:15:21;6.20;99.90
25753;DHT22;13600;50.816;4.416;2023-12-20T08:17:46;6.30;99.90
25753;DHT22;13600;50.816;4.416;2023-12-20T08:20:12;6.30;99.90
25753;DHT22;13600;50.816;4.416;2023-12-20T08:22:38;6.20;99.90
25753;DHT22;13600;50.816;4.416;2023-12-20T08:25:04;6.20;99.90
25753;DHT22;13600;50.816;4.416;2023-12-20T08:27:30;6.20;99.90
25753;DHT22;13600;50.816;4.416;2023-12-20T08:29:57;6.30;99.90
25753;DHT22;13600;50.816;4.416;2023-12-20T08:32:25;6.20;99.90
25753;DHT22;13600;50.816;4.416;2023-12-20T08:34:51;6.20;99.90
25753;DHT22;13600;50.816;4.416;2023-12-20T08:37:18;6.20;99.90
25753;DHT22;13600;50.816;4.416;2023-12-20T08:39:43;6.20;99.90
25753;DHT22;13600;50.816;4.416;2023-12-20T08:42:09;6.20;99.90
25753;DHT22;13600;50.816;4.416;2023-12-20T08:44:35;6.30;99.90
25753;DHT22;13600;50.816;4.416;2023-12-20T08:47:01;6.30;99.90
25753;DHT22;13600;50.816;4.416;2023-12-20T08:49:27;6.40;99.90
25753;DHT22;13600;50.816;4.416;2023-12-20T08:51:53;6.50;99.90
25753;DHT22;13600;50.816;4.416;2023-12-20T08:54:19;6.50;99.90
25753;DHT22;13600;50.816;4.416;2023-12-20T08:56:45;6.60;99.90
25753;DHT22;13600;50.816;4.416;2023-12-20T08:59:14;6.60;99.90
25753;DHT22;13600;50.816;4.416;2023-12-20T09:01:40;6.60;99.90
25753;DHT22;13600;50.816;4.416;2023-12-20T09:04:05;6.60;99.90
25753;DHT22;13600;50.816;4.416;2023-12-20T09:06:32;6.50;99.90
25753;DHT22;13600;50.816;4.416;2023-12-20T09:08:57;6.50;99.90
25753;DHT22;13600;50.816;4.416;2023-12-20T09:11:23;6.50;99.90
25753;DHT22;13600;50.816;4.416;2023-12-20T09:13:49;6.50;99.90
25753;DHT22;13600;50.816;4.416;2023-12-20T09:16:15;6.50;99.90
25753;DHT22;13600;50.816;4.416;2023-12-20T09:18:42;6.60;99.90
25753;DHT22;13600;50.816;4.416;2023-12-20T09:21:09;6.60;99.90
25753;DHT22;13600;50.816;4.416;2023-12-20T09:23:34;6.60;99.90
25753;DHT22;13600;50.816;4.416;2023-12-20T09:26:02;6.60;99.90
25753;DHT22;13600;50.816;4.416;2023-12-20T09:28:28;6.50;99.90
25753;DHT22;13600;50.816;4.416;2023-12-20T09:30:53;6.60;99.90
25753;DHT22;13600;50.816;4.416;2023-12-20T09:33:19;6.70;99.90
25753;DHT22;13600;50.816;4.416;2023-12-20T09:35:44;6.70;99.90
25753;DHT22;13600;50.816;4.416;2023-12-20T09:38:10;6.80;99.90
25753;DHT22;13600;50.816;4.416;2023-12-20T09:40:36;6.90;99.90
25753;DHT22;13600;50.816;4.416;2023-12-20T09:43:05;6.80;99.90
25753;DHT22;13600;50.816;4.416;2023-12-20T09:45:33;6.90;99.90
25753;DHT22;13600;50.816;4.416;2023-12-20T09:48:00;7.10;99.90
25753;DHT22;13600;50.816;4.416;2023-12-20T09:50:26;7.30;99.90
25753;DHT22;13600;50.816;4.416;2023-12-20T09:52:53;7.50;99.90
25753;DHT22;13600;50.816;4.416;2023-12-20T09:55:20;7.60;99.90
25753;DHT22;13600;50.816;4.416;2023-12-20T09:57:46;7.80;99.90
25753;DHT22;13600;50.816;4.416;2023-12-20T10:00:13;7.90;99.90
25753;DHT22;13600;50.816;4.416;2023-12-20T10:02:55;8.00;99.90
25753;DHT22;13600;50.816;4.416;2023-12-20T10:05:33;8.20;99.90
25753;DHT22;13600;50.816;4.416;2023-12-20T10:08:00;8.20;99.90
25753;DHT22;13600;50.816;4.416;2023-12-20T10:10:27;8.20;99.90
25753;DHT22;13600;50.816;4.416;2023-12-20T10:13:07;8.30;99.90
25753;DHT22;13600;50.816;4.416;2023-12-20T10:15:33;8.20;99.90
25753;DHT22;13600;50.816;4.416;2023-12-20T10:17:59;8.20;99.90
25753;DHT22;13600;50.816;4.416;2023-12-20T10:20:25;8.20;99.90
25753;DHT22;13600;50.816;4.416;2023-12-20T10:22:51;8.20;99.90
25753;DHT22;13600;50.816;4.416;2023-12-20T10:25:20;8.30;99.90
25753;DHT22;13600;50.816;4.416;2023-12-20T10:27:47;8.40;99.90
25753;DHT22;13600;50.816;4.416;2023-12-20T10:30:14;8.50;99.90
25753;DHT22;13600;50.816;4.416;2023-12-20T10:32:40;8.50;99.90
25753;DHT22;13600;50.816;4.416;2023-12-20T10:35:07;8.60;99.90
25753;DHT22;13600;50.816;4.416;2023-12-20T10:37:36;8.70;99.90
25753;DHT22;13600;50.816;4.416;2023-12-20T10:40:04;8.70;99.90
25753;DHT22;13600;50.816;4.416;2023-12-20T10:42:31;8.80;99.90
25753;DHT22;13600;50.816;4.416;2023-12-20T10:45:00;8.70;99.90
25753;DHT22;13600;50.816;4.416;2023-12-20T10:47:25;8.70;99.90
25753;DHT22;13600;50.816;4.416;2023-12-20T10:49:52;8.70;99.90
25753;DHT22;13600;50.816;4.416;2023-12-20T10:52:18;8.90;99.90
25753;DHT22;13600;50.816;4.416;2023-12-20T10:54:45;8.80;99.90
25753;DHT22;13600;50.816;4.416;2023-12-20T10:57:11;8.80;99.90
25753;DHT22;13600;50.816;4.416;2023-12-20T10:59:37;8.90;99.90
25753;DHT22;13600;50.816;4.416;2023-12-20T11:02:05;9.10;99.90
25753;DHT22;13600;50.816;4.416;2023-12-20T11:04:47;9.10;99.90
25753;DHT22;13600;50.816;4.416;2023-12-20T11:09:51;9.00;99.90
25753;DHT22;13600;50.816;4.416;2023-12-20T11:12:25;9.00;99.90
25753;DHT22;13600;50.816;4.416;2023-12-20T11:14:54;9.00;99.90
25753;DHT22;13600;50.816;4.416;2023-12-20T11:17:22;8.80;99.90
25753;DHT22;13600;50.816;4.416;2023-12-20T11:22:25;8.80;99.90
25753;DHT22;13600;50.816;4.416;2023-12-20T11:24:53;8.90;99.90
25753;DHT22;13600;50.816;4.416;2023-12-20T11:27:20;8.90;99.90
25753;DHT22;13600;50.816;4.416;2023-12-20T11:29:54;8.90;99.90
25753;DHT22;13600;50.816;4.416;2023-12-20T11:34:55;8.70;99.90
25753;DHT22;13600;50.816;4.416;2023-12-20T11:37:21;8.60;99.90
25753;DHT22;13600;50.816;4.416;2023-12-20T11:40:00;8.60;99.90
25753;DHT22;13600;50.816;4.416;2023-12-20T11:42:42;8.70;99.90
25753;DHT22;13600;50.816;4.416;2023-12-20T11:45:13;8.60;99.90
25753;DHT22;13600;50.816;4.416;2023-12-20T11:47:45;8.70;99.90
25753;DHT22;13600;50.816;4.416;2023-12-20T11:50:11;8.80;99.90
25753;DHT22;13600;50.816;4.416;2023-12-20T11:52:38;8.90;99.90
25753;DHT22;13600;50.816;4.416;2023-12-20T11:55:04;9.00;99.90
25753;DHT22;13600;50.816;4.416;2023-12-20T11:57:31;9.00;99.90
25753;DHT22;13600;50.816;4.416;2023-12-20T11:59:57;9.00;99.90
25753;DHT22;13600;50.816;4.416;2023-12-20T12:02:22;8.90;99.90
25753;DHT22;13600;50.816;4.416;2023-12-20T12:04:49;8.90;99.90
25753;DHT22;13600;50.816;4.416;2023-12-20T12:07:16;8.90;99.90
25753;DHT22;13600;50.816;4.416;2023-12-20T12:09:43;8.90;99.90
25753;DHT22;13600;50.816;4.416;2023-12-20T12:12:10;9.00;99.90
25753;DHT22;13600;50.816;4.416;2023-12-20T12:14:37;9.20;99.90
25753;DHT22;13600;50.816;4.416;2023-12-20T12:17:04;9.20;99.90
25753;DHT22;13600;50.816;4.416;2023-12-20T12:19:30;9.20;99.90
25753;DHT22;13600;50.816;4.416;2023-12-20T12:24:43;9.00;99.90
25753;DHT22;13600;50.816;4.416;2023-12-20T12:27:10;9.10;99.90
25753;DHT22;13600;50.816;4.416;2023-12-20T12:29:37;9.20;99.90
25753;DHT22;13600;50.816;4.416;2023-12-20T12:32:09;9.20;99.90
25753;DHT22;13600;50.816;4.416;2023-12-20T12:34:38;9.20;99.90
25753;DHT22;13600;50.816;4.416;2023-12-20T12:37:05;9.30;99.90
25753;DHT22;13600;50.816;4.416;2023-12-20T12:39:30;9.10;99.90
25753;DHT22;13600;50.816;4.416;2023-12-20T12:41:56;9.00;99.90
25753;DHT22;13600;50.816;4.416;2023-12-20T12:44:22;9.10;99.90
25753;DHT22;13600;50.816;4.416;2023-12-20T12:46:51;9.00;99.90
25753;DHT22;13600;50.816;4.416;2023-12-20T12:49:21;9.10;99.90
25753;DHT22;13600;50.816;4.416;2023-12-20T12:51:47;9.10;99.90
25753;DHT22;13600;50.816;4.416;2023-12-20T12:54:13;9.20;99.90
25753;DHT22;13600;50.816;4.416;2023-12-20T12:56:41;9.30;99.90
25753;DHT22;13600;50.816;4.416;2023-12-20T12:59:06;9.20;99.90
25753;DHT22;13600;50.816;4.416;2023-12-20T13:01:32;9.20;99.90
25753;DHT22;13600;50.816;4.416;2023-12-20T13:03:58;9.20;99.90
25753;DHT22;13600;50.816;4.416;2023-12-20T13:06:24;9.30;99.90
25753;DHT22;13600;50.816;4.416;2023-12-20T13:08:50;9.20;99.90
25753;DHT22;13600;50.816;4.416;2023-12-20T13:11:16;9.30;99.90
25753;DHT22;13600;50.816;4.416;2023-12-20T13:13:42;9.40;99.90
25753;DHT22;13600;50.816;4.416;2023-12-20T13:16:08;9.30;99.90
25753;DHT22;13600;50.816;4.416;2023-12-20T13:18:35;9.30;99.90
25753;DHT22;13600;50.816;4.416;2023-12-20T13:21:01;9.10;99.90
25753;DHT22;13600;50.816;4.416;2023-12-20T13:23:27;9.20;99.90
25753;DHT22;13600;50.816;4.416;2023-12-20T13:25:54;9.10;99.90
25753;DHT22;13600;50.816;4.416;2023-12-20T13:28:20;9.10;99.90
25753;DHT22;13600;50.816;4.416;2023-12-20T13:30:45;9.20;99.90
25753;DHT22;13600;50.816;4.416;2023-12-20T13:33:11;9.30;99.90
25753;DHT22;13600;50.816;4.416;2023-12-20T13:35:37;9.30;99.90
25753;DHT22;13600;50.816;4.416;2023-12-20T13:38:02;9.50;99.90
25753;DHT22;13600;50.816;4.416;2023-12-20T13:40:28;9.50;99.90
25753;DHT22;13600;50.816;4.416;2023-12-20T13:42:54;9.60;99.90
25753;DHT22;13600;50.816;4.416;2023-12-20T13:45:20;9.60;99.90
25753;DHT22;13600;50.816;4.416;2023-12-20T13:47:46;9.60;99.90
25753;DHT22;13600;50.816;4.416;2023-12-20T13:50:11;9.60;99.90
25753;DHT22;13600;50.816;4.416;2023-12-20T13:52:38;9.70;99.90
25753;DHT22;13600;50.816;4.416;2023-12-20T13:55:04;9.70;99.90
25753;DHT22;13600;50.816;4.416;2023-12-20T13:57:33;9.60;99.90
25753;DHT22;13600;50.816;4.416;2023-12-20T13:59:59;9.60;99.90
25753;DHT22;13600;50.816;4.416;2023-12-20T14:02:25;9.60;99.90
25753;DHT22;13600;50.816;4.416;2023-12-20T14:04:52;9.60;99.90
25753;DHT22;13600;50.816;4.416;2023-12-20T14:07:18;9.60;99.90
25753;DHT22;13600;50.816;4.416;2023-12-20T14:09:44;9.60;99.90
25753;DHT22;13600;50.816;4.416;2023-12-20T14:12:11;9.60;99.90
25753;DHT22;13600;50.816;4.416;2023-12-20T14:14:37;9.70;99.90
25753;DHT22;13600;50.816;4.416;2023-12-20T14:17:03;9.80;99.90
25753;DHT22;13600;50.816;4.416;2023-12-20T14:19:29;9.80;99.90
25753;DHT22;13600;50.816;4.416;2023-12-20T14:21:55;9.90;99.90
25753;DHT22;13600;50.816;4.416;2023-12-20T14:24:21;9.90;99.90
25753;DHT22;13600;50.816;4.416;2023-12-20T14:26:46;9.90;99.90
25753;DHT22;13600;50.816;4.416;2023-12-20T14:29:12;9.70;99.90
25753;DHT22;13600;50.816;4.416;2023-12-20T14:31:37;9.80;99.90
25753;DHT22;13600;50.816;4.416;2023-12-20T14:34:04;9.70;99.90
25753;DHT22;13600;50.816;4.416;2023-12-20T14:36:30;9.80;99.90
25753;DHT22;13600;50.816;4.416;2023-12-20T14:38:58;9.90;99.90
25753;DHT22;13600;50.816;4.416;2023-12-20T14:41:25;9.90;99.90
25753;DHT22;13600;50.816;4.416;2023-12-20T14:43:53;10.00;99.90
25753;DHT22;13600;50.816;4.416;2023-12-20T14:46:20;9.90;99.90
25753;DHT22;13600;50.816;4.416;2023-12-20T14:48:46;9.90;99.90
25753;DHT22;13600;50.816;4.416;2023-12-20T14:51:13;9.90;99.90
25753;DHT22;13600;50.816;4.416;2023-12-20T14:53:40;9.80;99.90
25753;DHT22;13600;50.816;4.416;2023-12-20T14:56:07;9.80;99.90
25753;DHT22;13600;50.816;4.416;2023-12-20T14:58:33;9.80;99.90
25753;DHT22;13600;50.816;4.416;2023-12-20T15:00:59;9.70;99.90
25753;DHT22;13600;50.816;4.416;2023-12-20T15:03:25;9.80;99.90
25753;DHT22;13600;50.816;4.416;2023-12-20T15:05:50;9.80;99.90
25753;DHT22;13600;50.816;4.416;2023-12-20T15:08:16;9.70;99.90
25753;DHT22;13600;50.816;4.416;2023-12-20T15:10:42;9.70;99.90
25753;DHT22;13600;50.816;4.416;2023-12-20T15:13:07;9.70;99.90
25753;DHT22;13600;50.816;4.416;2023-12-20T15:15:33;9.70;99.90
25753;DHT22;13600;50.816;4.416;2023-12-20T15:17:59;9.70;99.90
25753;DHT22;13600;50.816;4.416;2023-12-20T15:20:27;9.70;99.90
25753;DHT22;13600;50.816;4.416;2023-12-20T15:22:53;9.80;99.90
25753;DHT22;13600;50.816;4.416;2023-12-20T15:25:20;10.00;99.90
25753;DHT22;13600;50.816;4.416;2023-12-20T15:27:48;9.90;99.90
25753;DHT22;13600;50.816;4.416;2023-12-20T15:30:19;9.80;99.90
25753;DHT22;13600;50.816;4.416;2023-12-20T15:32:44;9.70;99.90
25753;DHT22;13600;50.816;4.416;2023-12-20T15:35:10;9.70;99.90
25753;DHT22;13600;50.816;4.416;2023-12-20T15:37:38;9.70;99.90
25753;DHT22;13600;50.816;4.416;2023-12-20T15:40:04;9.70;99.90
25753;DHT22;13600;50.816;4.416;2023-12-20T15:42:30;9.60;99.90
25753;DHT22;13600;50.816;4.416;2023-12-20T15:44:57;9.60;99.90
25753;DHT22;13600;50.816;4.416;2023-12-20T15:47:23;9.60;99.90
25753;DHT22;13600;50.816;4.416;2023-12-20T15:49:48;9.70;99.90